SAVY/PMY METAR and TAF weather

Enter ICAO airport designator
Station Type Date Time Source
SAVY METAR 2020/08/26 13:30 UTC NOAA

SAVY 261330Z 16004KT 9999 SCT012 BKN018 06/06 Q1012


Station Type Date Time Source
SAVY Decoded METAR 2020/08/26 13:30 UTC NOAA

Puerto Madryn, CHT, Argentina (SAVY) 42-45-33S 065-06-10W
Aug 26, 2020 - 09:30 AM EDT / 2020.08.26 1330 UTC
Wind: from the SSE (160 degrees) at 5 MPH (4 KT):0
Visibility: greater than 7 mile(s):0
Sky conditions: mostly cloudy
Temperature: 42 F (6 C)
Dew Point: 42 F (6 C)
Relative Humidity: 100%
Pressure (altimeter): 29.88 in. Hg (1012 hPa)
ob: SAVY 261330Z 16004KT 9999 SCT012 BKN018 06/06 Q1012
cycle: 13

Station Type Date Time Source
SAVY TAF UTC NOAA

Error!

Example: see airport list